Overview Statistics Trail Chart Weather Telemetry Raw packets
 

This is the latest recevied weather packets stored in our database for station/object S57PNX-8. If no packets are shown the sender has not sent any weather packets the latest 10 day(s).

<< 10 11 12 13 14 15 16 >>
Time Temp. Humidity Pressure Rain* Wind** Luminosity Snow
1788462168 22.78° C 47% 1026.4 hPa - - - -
1788461508 22.78° C 46% 1026.2 hPa - - - -
1788461269 22.78° C 46% 1026.2 hPa - - - -
1788460370 22.78° C 46% 1026.2 hPa - - - -
1788459471 23.33° C 45% 1026.1 hPa - - - -
1788458578 23.33° C 44% 1026 hPa - - - -
1788457673 23.33° C 44% 1026 hPa - - - -
1788456773 24.44° C 43% 1025.9 hPa - - - -
1788455874 25.56° C 42% 1025.8 hPa - - - -
1788454976 26.67° C 41% 1025.9 hPa - - - -
1788454077 27.78° C 39% 1025.9 hPa - - - -
1788453173 26.67° C 41% 1025.9 hPa - - - -
1788452274 26.11° C 42% 1025.5 hPa - - - -
1788451375 27.22° C 39% 1025.6 hPa - - - -
1788450482 28.89° C 33% 1025.3 hPa - - - -
1788449577 31.11° C 34% 1025.3 hPa - - - -
1788449057 28.89° C 34% 1025.5 hPa - - - -
1788448153 27.78° C 37% 1025.5 hPa - - - -
1788447254 27.22° C 41% 1025.5 hPa - - - -
1788446355 27.22° C 41% 1025.5 hPa - - - -
1788445456 26.67° C 43% 1025.6 hPa - - - -
1788444553 26.11° C 45% 1025.6 hPa - - - -
1788443654 26.11° C 45% 1025.7 hPa - - - -
1788442754 25.56° C 45% 1025.6 hPa - - - -
1788441855 25° C 46% 1025.6 hPa - - - -

* Rain since midnight (hover to see other rain measurements)
** Current wind speed in m/s (hover to see current wind gust speed)